createdAt,value
2023-03-21T00:01:52.382Z,101490.75
2023-03-21T00:04:20.261Z,101491.63
2023-03-21T00:06:47.377Z,101492.38
2023-03-21T00:09:14.441Z,101480.28
2023-03-21T00:11:42.007Z,101494.97
2023-03-21T00:14:09.148Z,101489.94
2023-03-21T00:16:39.529Z,101488.97
2023-03-21T00:19:07.520Z,101489.00
2023-03-21T00:21:49.096Z,101486.22
2023-03-21T00:24:23.733Z,101473.16
2023-03-21T00:26:51.473Z,101488.13
2023-03-21T00:29:19.073Z,101478.44
2023-03-21T00:31:46.212Z,101471.78
2023-03-21T00:36:45.357Z,101481.09
2023-03-21T00:39:12.486Z,101481.28
2023-03-21T00:41:43.112Z,101476.75
2023-03-21T00:44:13.752Z,101468.09
2023-03-21T00:46:54.483Z,101469.72
2023-03-21T00:49:27.872Z,101473.06
2023-03-21T00:51:55.227Z,101472.38
2023-03-21T00:54:24.324Z,101465.25
2023-03-21T00:56:52.527Z,101463.59
2023-03-21T00:59:19.674Z,101455.06
2023-03-21T01:01:46.978Z,101456.38
2023-03-21T01:04:16.692Z,101447.00
2023-03-21T01:06:44.456Z,101441.13
2023-03-21T01:09:19.359Z,101436.78
2023-03-21T01:11:46.439Z,101445.25
2023-03-21T01:14:23.816Z,101428.09
2023-03-21T01:16:53.229Z,101426.66
2023-03-21T01:19:29.061Z,101430.59
2023-03-21T01:21:58.236Z,101425.53
2023-03-21T01:24:25.691Z,101428.38
2023-03-21T01:26:52.724Z,101419.50
2023-03-21T01:29:20.108Z,101417.84
2023-03-21T01:31:47.283Z,101415.25
2023-03-21T01:34:14.402Z,101418.69
2023-03-21T01:36:41.590Z,101418.56
2023-03-21T01:39:08.698Z,101416.09
2023-03-21T01:41:43.342Z,101411.03
2023-03-21T01:44:18.010Z,101412.91
2023-03-21T01:47:03.540Z,101405.66
2023-03-21T01:49:45.938Z,101406.84
2023-03-21T01:52:35.327Z,101409.44
2023-03-21T01:55:06.989Z,101406.84
2023-03-21T01:57:47.266Z,101398.34
2023-03-21T02:00:25.863Z,101396.66
2023-03-21T02:02:58.124Z,101385.25
2023-03-21T02:05:37.495Z,101386.97
2023-03-21T02:08:04.782Z,101386.97
2023-03-21T02:10:32.835Z,101380.97
2023-03-21T02:13:09.556Z,101376.50
2023-03-21T02:15:42.455Z,101376.66
2023-03-21T02:18:20.939Z,101369.69
2023-03-21T02:20:51.100Z,101372.34
2023-03-21T02:23:39.570Z,101372.28
2023-03-21T02:26:33.381Z,101368.03
2023-03-21T02:29:46.591Z,101368.56
2023-03-21T02:32:38.387Z,101364.03
2023-03-21T02:35:26.956Z,101365.69
2023-03-21T02:38:09.016Z,101358.94
2023-03-21T02:40:53.764Z,101354.00
2023-03-21T02:43:30.955Z,101347.72
2023-03-21T02:46:14.689Z,101352.66
2023-03-21T02:49:07.378Z,101353.56
2023-03-21T02:51:36.720Z,101338.94
2023-03-21T02:54:30.006Z,101347.53
2023-03-21T02:56:58.098Z,101341.50
2023-03-21T02:59:27.206Z,101339.00
2023-03-21T03:01:56.333Z,101342.41
2023-03-21T03:04:29.059Z,101338.13
2023-03-21T03:07:17.862Z,101326.63
2023-03-21T03:10:02.367Z,101343.25
2023-03-21T03:12:57.844Z,101338.06
2023-03-21T03:15:34.502Z,101329.41
2023-03-21T03:18:28.713Z,101329.56
2023-03-21T03:21:13.004Z,101335.59
2023-03-21T03:23:56.206Z,101337.16
2023-03-21T03:26:41.043Z,101332.81
2023-03-21T03:29:12.250Z,101324.38
2023-03-21T03:31:44.422Z,101331.16
2023-03-21T03:34:18.462Z,101330.28
2023-03-21T03:36:51.726Z,101326.09
2023-03-21T03:39:19.132Z,101326.09
2023-03-21T03:42:12.579Z,101331.44
2023-03-21T03:44:48.565Z,101324.22
2023-03-21T03:47:33.716Z,101328.84
2023-03-21T03:50:13.099Z,101320.91
2023-03-21T03:52:55.819Z,101319.22
2023-03-21T03:55:27.157Z,101313.19
2023-03-21T03:57:55.191Z,101320.09
2023-03-21T04:00:22.357Z,101312.22
2023-03-21T04:02:49.480Z,101317.53
2023-03-21T04:05:20.990Z,101318.25
2023-03-21T04:07:51.614Z,101310.47
2023-03-21T04:10:20.442Z,101318.56
2023-03-21T04:12:47.535Z,101308.34
2023-03-21T04:15:14.623Z,101312.44
2023-03-21T04:17:41.953Z,101315.25
2023-03-21T04:20:13.961Z,101289.97
2023-03-21T04:22:45.738Z,101305.88
2023-03-21T04:25:18.977Z,101299.84
2023-03-21T04:27:51.497Z,101308.47
2023-03-21T04:30:19.747Z,101297.34
2023-03-21T04:32:56.609Z,101307.78
2023-03-21T04:35:24.706Z,101301.44
2023-03-21T04:37:51.812Z,101305.91
2023-03-21T04:40:18.868Z,101308.34
2023-03-21T04:42:48.246Z,101295.56
2023-03-21T04:45:16.569Z,101300.75
2023-03-21T04:47:43.906Z,101303.50
2023-03-21T04:50:13.137Z,101293.25
2023-03-21T04:52:40.300Z,101288.75
2023-03-21T04:55:10.036Z,101288.09
2023-03-21T04:57:38.631Z,101286.34
2023-03-21T05:00:10.214Z,101294.09
2023-03-21T05:02:37.974Z,101292.44
2023-03-21T05:05:05.524Z,101291.53
2023-03-21T05:07:32.830Z,101294.78
2023-03-21T05:10:02.583Z,101293.16
2023-03-21T05:12:30.819Z,101283.72
2023-03-21T05:14:58.028Z,101298.22
2023-03-21T05:17:28.298Z,101287.69
2023-03-21T05:19:56.604Z,101280.72
2023-03-21T05:22:26.675Z,101295.31
2023-03-21T05:24:55.327Z,101291.03
2023-03-21T05:27:35.962Z,101287.38
2023-03-21T05:30:10.822Z,101295.75
2023-03-21T05:32:37.852Z,101289.91
2023-03-21T05:35:05.695Z,101289.69
2023-03-21T05:37:32.828Z,101286.56
2023-03-21T05:40:00.584Z,101282.16
2023-03-21T05:42:27.668Z,101279.47
2023-03-21T05:44:55.282Z,101291.56
2023-03-21T05:47:22.385Z,101284.72
2023-03-21T05:49:49.913Z,101285.56
2023-03-21T05:52:17.102Z,101283.81
2023-03-21T05:54:44.205Z,101280.53
2023-03-21T05:57:11.848Z,101277.03
2023-03-21T05:59:39.005Z,101274.56
2023-03-21T06:02:06.057Z,101278.00
2023-03-21T06:04:33.208Z,101273.63
2023-03-21T06:07:00.562Z,101267.59
2023-03-21T06:09:27.977Z,101267.66
2023-03-21T06:11:57.166Z,101271.94
2023-03-21T06:14:25.248Z,101277.31
2023-03-21T06:16:54.003Z,101273.19
2023-03-21T06:19:21.806Z,101273.13
2023-03-21T06:21:49.634Z,101278.31
2023-03-21T06:24:17.816Z,101278.50
2023-03-21T06:26:45.724Z,101281.19
2023-03-21T06:29:12.950Z,101276.28
2023-03-21T06:31:40.369Z,101278.06
2023-03-21T06:34:07.705Z,101277.16
2023-03-21T06:36:34.775Z,101278.03
2023-03-21T06:39:01.948Z,101274.66
2023-03-21T06:41:29.434Z,101264.13
2023-03-21T06:43:56.564Z,101278.13
2023-03-21T06:46:24.195Z,101272.16
2023-03-21T06:48:51.258Z,101275.69
2023-03-21T06:51:18.306Z,101275.84
2023-03-21T06:53:45.761Z,101280.19
2023-03-21T06:56:14.327Z,101275.88
2023-03-21T06:58:41.687Z,101275.94
2023-03-21T07:01:09.340Z,101272.56
2023-03-21T07:03:37.775Z,101272.59
2023-03-21T07:06:07.457Z,101270.97
2023-03-21T07:08:34.584Z,101267.41
2023-03-21T07:11:01.690Z,101273.47
2023-03-21T07:13:29.702Z,101274.31
2023-03-21T07:15:56.790Z,101278.69
2023-03-21T07:18:24.267Z,101276.09
2023-03-21T07:20:51.613Z,101278.72
2023-03-21T07:23:23.718Z,101280.47
2023-03-21T07:25:51.743Z,101284.78
2023-03-21T07:28:19.196Z,101279.44
2023-03-21T07:30:55.794Z,101282.38
2023-03-21T07:33:24.042Z,101283.41
2023-03-21T07:35:52.176Z,101292.97
2023-03-21T07:38:20.387Z,101287.69
2023-03-21T07:40:48.646Z,101278.13
2023-03-21T07:43:16.610Z,101289.53
2023-03-21T07:45:45.020Z,101282.66
2023-03-21T07:48:13.368Z,101276.56
2023-03-21T07:50:41.023Z,101279.97
2023-03-21T07:53:08.860Z,101282.63
2023-03-21T07:55:36.278Z,101277.50
2023-03-21T07:58:04.617Z,101273.28
2023-03-21T08:00:31.760Z,101275.97
2023-03-21T08:03:00.458Z,101263.84
2023-03-21T08:05:34.595Z,101265.91
2023-03-21T08:08:01.745Z,101259.19
2023-03-21T08:10:29.479Z,101248.84
2023-03-21T08:12:56.553Z,101248.03
2023-03-21T08:15:24.094Z,101249.09
2023-03-21T08:17:51.170Z,101262.06
2023-03-21T08:20:21.632Z,101253.53
2023-03-21T08:22:49.635Z,101259.88
2023-03-21T08:25:19.560Z,101253.81
2023-03-21T08:27:48.269Z,101255.56
2023-03-21T08:30:19.194Z,101241.91
2023-03-21T08:32:46.277Z,101241.19
2023-03-21T08:35:15.987Z,101238.69
2023-03-21T08:37:43.678Z,101245.53
2023-03-21T08:40:13.320Z,101237.78
2023-03-21T08:42:41.806Z,101236.19
2023-03-21T08:45:09.688Z,101236.81
2023-03-21T08:47:36.918Z,101235.41
2023-03-21T08:50:06.887Z,101232.88
2023-03-21T08:52:34.130Z,101239.81
2023-03-21T08:55:02.571Z,101242.28
2023-03-21T08:57:30.881Z,101241.38
2023-03-21T08:59:57.905Z,101218.16
2023-03-21T09:02:25.540Z,101215.69
2023-03-21T09:04:59.728Z,101207.16
2023-03-21T09:07:27.865Z,101207.31
2023-03-21T09:10:14.908Z,101210.84
2023-03-21T09:12:43.206Z,101212.56
2023-03-21T09:15:12.215Z,101202.13
2023-03-21T09:17:42.388Z,101200.38
2023-03-21T09:20:18.790Z,101200.38
2023-03-21T09:22:47.608Z,101198.75
2023-03-21T09:25:16.545Z,101200.47
2023-03-21T09:27:45.620Z,101192.75
2023-03-21T09:30:25.531Z,101188.38
2023-03-21T09:32:55.508Z,101186.59
2023-03-21T09:35:24.364Z,101184.03
2023-03-21T09:37:51.574Z,101186.63
2023-03-21T09:40:26.281Z,101189.34
2023-03-21T09:43:04.387Z,101169.44
2023-03-21T09:45:53.986Z,101186.97
2023-03-21T09:48:56.732Z,101176.69
2023-03-21T09:51:31.273Z,101168.16
2023-03-21T09:54:00.776Z,101171.06
2023-03-21T09:56:27.954Z,101172.06
2023-03-21T09:58:59.507Z,101179.03
2023-03-21T10:01:32.976Z,101172.06
2023-03-21T10:04:04.884Z,101174.81
2023-03-21T10:06:34.567Z,101178.16
2023-03-21T10:09:14.254Z,101170.38
2023-03-21T10:11:51.715Z,101169.50
2023-03-21T10:14:25.564Z,101176.41
2023-03-21T10:16:57.018Z,101172.72
2023-03-21T10:19:24.484Z,101169.34
2023-03-21T10:22:00.846Z,101173.00
2023-03-21T10:24:33.184Z,101177.50
2023-03-21T10:27:02.737Z,101174.06
2023-03-21T10:29:39.725Z,101181.88
2023-03-21T10:32:11.878Z,101163.78
2023-03-21T10:34:46.765Z,101161.31
2023-03-21T10:37:14.559Z,101161.34
2023-03-21T10:39:49.184Z,101160.66
2023-03-21T10:42:24.065Z,101155.47
2023-03-21T10:44:53.532Z,101153.03
2023-03-21T10:47:32.820Z,101151.34
2023-03-21T10:50:09.909Z,101134.22
2023-03-21T10:52:51.246Z,101145.56
2023-03-21T10:55:24.264Z,101143.03
2023-03-21T10:58:10.671Z,101149.06
2023-03-21T11:00:41.377Z,101149.13
2023-03-21T11:03:23.454Z,101151.81
2023-03-21T11:05:57.269Z,101157.78
2023-03-21T11:08:24.804Z,101145.69
2023-03-21T11:11:01.187Z,101151.75
2023-03-21T11:13:38.983Z,101150.13
2023-03-21T11:16:08.264Z,101149.22
2023-03-21T11:18:43.054Z,101149.28
2023-03-21T11:21:13.636Z,101155.50
2023-03-21T11:23:46.795Z,101141.72
2023-03-21T11:26:24.489Z,101132.31
2023-03-21T11:28:52.024Z,101135.03
2023-03-21T11:31:19.351Z,101136.47
2023-03-21T11:34:01.657Z,101145.31
2023-03-21T11:36:34.315Z,101145.44
2023-03-21T11:39:39.633Z,101140.34
2023-03-21T11:42:26.964Z,101141.88
2023-03-21T11:45:05.592Z,101122.75
2023-03-21T11:47:32.723Z,101119.22
2023-03-21T11:50:07.863Z,101117.56
2023-03-21T11:52:48.333Z,101115.72
2023-03-21T11:55:34.013Z,101108.06
2023-03-21T11:58:14.245Z,101112.56
2023-03-21T12:00:55.227Z,101112.63
2023-03-21T12:03:49.023Z,101120.25
2023-03-21T12:06:42.698Z,101116.59
2023-03-21T12:09:18.200Z,101105.31
2023-03-21T12:12:01.757Z,101117.56
2023-03-21T12:14:42.711Z,101117.63
2023-03-21T12:17:27.336Z,101104.31
2023-03-21T12:20:30.721Z,101108.03
2023-03-21T12:23:15.480Z,101093.50
2023-03-21T12:25:54.171Z,101098.78
2023-03-21T12:28:42.603Z,101095.38
2023-03-21T12:31:21.045Z,101096.31
2023-03-21T12:33:50.965Z,101095.38
2023-03-21T12:36:39.819Z,101088.50
2023-03-21T12:39:09.855Z,101092.03
2023-03-21T12:41:54.808Z,101087.75
2023-03-21T12:44:26.027Z,101083.53
2023-03-21T12:47:01.338Z,101084.38
2023-03-21T12:49:33.103Z,101084.44
2023-03-21T12:52:08.206Z,101081.91
2023-03-21T12:54:39.043Z,101065.50
2023-03-21T12:57:12.070Z,101062.06
2023-03-21T12:59:56.092Z,101059.50
2023-03-21T13:02:31.255Z,101064.78
2023-03-21T13:05:31.681Z,101053.56
2023-03-21T13:08:04.595Z,101057.91
2023-03-21T13:10:33.666Z,101049.28
2023-03-21T13:13:19.113Z,101049.22
2023-03-21T13:15:52.693Z,101040.25
2023-03-21T13:18:29.564Z,101036.69
2023-03-21T13:21:17.545Z,101021.91
2023-03-21T13:24:03.912Z,101039.16
2023-03-21T13:26:41.549Z,101038.25
2023-03-21T13:29:27.102Z,101042.69
2023-03-21T13:31:57.467Z,101027.28
2023-03-21T13:34:26.862Z,101027.34
2023-03-21T13:36:56.540Z,101034.25
2023-03-21T13:39:29.619Z,101025.50
2023-03-21T13:42:03.897Z,101033.34
2023-03-21T13:44:50.324Z,101023.75
2023-03-21T13:47:31.695Z,101021.16
2023-03-21T13:50:19.923Z,101012.66
2023-03-21T13:53:01.965Z,101019.66
2023-03-21T13:55:36.646Z,101019.56
2023-03-21T13:58:42.650Z,101009.94
2023-03-21T14:01:23.530Z,101007.38
2023-03-21T14:03:56.957Z,101017.75
2023-03-21T14:06:32.012Z,101004.53
2023-03-21T14:09:01.713Z,100999.19
2023-03-21T14:11:32.152Z,100995.75
2023-03-21T14:14:01.632Z,101002.53
2023-03-21T14:16:30.563Z,101010.38
2023-03-21T14:19:02.605Z,101003.34
2023-03-21T14:21:33.299Z,100999.78
2023-03-21T14:24:06.601Z,100998.09
2023-03-21T14:26:37.841Z,101005.91
2023-03-21T14:29:22.830Z,101009.28
2023-03-21T14:31:53.817Z,101003.09
2023-03-21T14:34:22.322Z,100985.72
2023-03-21T14:36:57.540Z,100995.38
2023-03-21T14:39:32.394Z,100998.03
2023-03-21T14:42:13.688Z,100988.47
2023-03-21T14:44:57.852Z,100978.13
2023-03-21T14:47:32.189Z,100977.22
2023-03-21T14:50:03.644Z,100989.31
2023-03-21T14:52:33.139Z,100993.53
2023-03-21T14:55:02.669Z,100984.84
2023-03-21T14:57:33.160Z,100983.16
2023-03-21T15:00:12.780Z,100991.88
2023-03-21T15:02:41.778Z,100984.13
2023-03-21T15:05:11.017Z,100990.09
2023-03-21T15:07:39.353Z,100988.31
2023-03-21T15:10:13.759Z,100984.91
2023-03-21T15:12:51.568Z,100969.25
2023-03-21T15:15:19.181Z,100973.72
2023-03-21T15:17:47.233Z,100975.47
2023-03-21T15:20:16.130Z,100973.72
2023-03-21T15:22:48.969Z,100958.03
2023-03-21T15:25:20.667Z,100964.25
2023-03-21T15:27:50.602Z,100958.22
2023-03-21T15:30:31.630Z,100947.75
2023-03-21T15:33:10.669Z,100938.19
2023-03-21T15:35:41.143Z,100955.53
2023-03-21T15:38:32.387Z,100961.59
2023-03-21T15:41:20.624Z,100959.91
2023-03-21T15:44:10.163Z,100952.00
2023-03-21T15:46:44.856Z,100963.19
2023-03-21T15:49:27.811Z,100953.63
2023-03-21T15:52:11.296Z,100965.66
2023-03-21T15:54:55.752Z,100962.88
2023-03-21T15:57:30.602Z,100960.44
2023-03-21T16:00:19.843Z,100966.53
2023-03-21T16:02:49.131Z,100969.97
2023-03-21T16:05:32.399Z,100982.13
2023-03-21T16:08:27.342Z,100989.06
2023-03-21T16:10:55.043Z,100985.47
2023-03-21T16:13:22.117Z,100989.69
2023-03-21T16:15:49.216Z,100989.75
2023-03-21T16:18:17.294Z,100993.25
2023-03-21T16:20:46.555Z,100994.03
2023-03-21T16:23:15.725Z,100991.34
2023-03-21T16:25:43.993Z,100997.31
2023-03-21T16:28:20.113Z,100997.28
2023-03-21T16:30:47.227Z,101002.19
2023-03-21T16:33:14.485Z,100999.34
2023-03-21T16:35:41.638Z,100996.47
2023-03-21T16:38:12.506Z,100990.34
2023-03-21T16:40:43.026Z,100985.66
2023-03-21T16:43:11.076Z,100973.56
2023-03-21T16:45:38.573Z,100979.72
2023-03-21T16:48:06.052Z,100958.06
2023-03-21T16:50:41.327Z,100943.13
2023-03-21T16:53:09.271Z,100955.31
2023-03-21T16:55:37.168Z,100954.41
2023-03-21T16:58:05.281Z,100958.13
2023-03-21T17:00:32.439Z,100934.72
2023-03-21T17:03:02.617Z,100942.69
2023-03-21T17:05:30.839Z,100937.69
2023-03-21T17:08:01.985Z,100934.47
2023-03-21T17:10:31.570Z,100944.41
2023-03-21T17:12:59.727Z,100958.56
2023-03-21T17:15:26.792Z,100964.88
2023-03-21T17:17:55.768Z,100966.81
2023-03-21T17:20:31.571Z,100972.97
2023-03-21T17:23:00.765Z,100975.16
2023-03-21T17:25:27.916Z,100967.16
2023-03-21T17:27:56.195Z,100959.94
2023-03-21T17:30:32.715Z,100964.81
2023-03-21T17:33:00.975Z,100962.09
2023-03-21T17:35:28.381Z,100957.59
2023-03-21T17:37:58.553Z,100964.28
2023-03-21T17:40:29.568Z,100966.94
2023-03-21T17:42:57.946Z,100965.00
2023-03-21T17:45:26.137Z,100964.91
2023-03-21T17:47:55.408Z,100958.84
2023-03-21T17:50:25.986Z,100957.13
2023-03-21T17:52:56.485Z,100947.47
2023-03-21T17:55:24.129Z,100954.31
2023-03-21T17:57:51.992Z,100966.38
2023-03-21T18:00:25.537Z,100959.38
2023-03-21T18:02:53.287Z,100939.53
2023-03-21T18:05:21.556Z,100954.31
2023-03-21T18:10:37.494Z,100949.06
2023-03-21T18:13:04.794Z,100939.53
2023-03-21T18:15:32.000Z,100943.03
2023-03-21T18:18:00.787Z,100951.66
2023-03-21T18:20:49.892Z,100943.81
2023-03-21T18:23:18.540Z,100936.84
2023-03-21T18:25:45.765Z,100937.69
2023-03-21T18:28:13.225Z,100930.59
2023-03-21T18:31:05.211Z,100938.38
2023-03-21T18:33:29.603Z,100932.28
2023-03-21T18:36:00.161Z,100940.03
2023-03-21T18:38:29.656Z,100942.59
2023-03-21T18:40:56.906Z,100942.41
2023-03-21T18:44:01.100Z,100938.22
2023-03-21T18:46:12.720Z,100944.28
2023-03-21T18:48:39.926Z,100922.47
2023-03-21T18:51:07.152Z,100942.63
2023-03-21T18:53:34.351Z,100941.72
2023-03-21T18:56:02.019Z,100934.72
2023-03-21T18:58:29.565Z,100938.22
2023-03-21T19:00:57.972Z,100939.97
2023-03-21T19:03:35.961Z,100949.47
2023-03-21T19:06:05.555Z,100943.44
2023-03-21T19:08:36.981Z,100943.44
2023-03-21T19:11:06.731Z,100947.66
2023-03-21T19:13:34.498Z,100952.16
2023-03-21T19:16:03.109Z,100950.41
2023-03-21T19:18:53.061Z,100944.31
2023-03-21T19:21:19.095Z,100951.25
2023-03-21T19:26:34.014Z,100942.84
2023-03-21T19:29:01.250Z,100947.28
2023-03-21T19:31:28.353Z,100942.13
2023-03-21T19:33:56.223Z,100945.44
2023-03-21T19:36:23.666Z,100944.38
2023-03-21T19:38:51.556Z,100939.13
2023-03-21T19:41:20.318Z,100934.75
2023-03-21T19:43:54.757Z,100938.13
2023-03-21T19:46:25.658Z,100940.72
2023-03-21T19:48:57.043Z,100950.06
2023-03-21T19:51:29.814Z,100943.09
2023-03-21T19:53:59.728Z,100942.88
2023-03-21T19:56:27.889Z,100943.75
2023-03-21T19:58:56.017Z,100940.28
2023-03-21T20:01:24.672Z,100941.16
2023-03-21T20:03:52.237Z,100936.84
2023-03-21T20:06:20.019Z,100928.22
2023-03-21T20:09:27.324Z,100938.53
2023-03-21T20:11:34.302Z,100932.47
2023-03-21T20:14:03.554Z,100931.69
2023-03-21T20:16:34.902Z,100912.53
2023-03-21T20:19:06.152Z,100923.97
2023-03-21T20:21:44.347Z,100907.44
2023-03-21T20:24:16.754Z,100907.34
2023-03-21T20:26:45.079Z,100909.91
2023-03-21T20:30:07.049Z,100912.41
2023-03-21T20:32:01.369Z,100912.31
2023-03-21T20:34:30.635Z,100907.88
2023-03-21T20:36:58.347Z,100905.13
2023-03-21T20:39:27.937Z,100902.56
2023-03-21T20:41:58.941Z,100894.78
2023-03-21T20:44:57.203Z,100899.94
2023-03-21T20:47:14.439Z,100894.69
2023-03-21T20:49:41.570Z,100894.78
2023-03-21T20:52:52.229Z,100885.97
2023-03-21T20:54:59.761Z,100898.09
2023-03-21T20:57:27.266Z,100897.16
2023-03-21T20:59:55.273Z,100883.28
2023-03-21T21:02:22.732Z,100880.63
2023-03-21T21:05:17.745Z,100892.72
2023-03-21T21:07:40.674Z,100890.16
2023-03-21T21:10:10.035Z,100878.13
2023-03-21T21:12:39.525Z,100872.97
2023-03-21T21:15:08.798Z,100872.13
2023-03-21T21:20:23.323Z,100872.97
2023-03-21T21:23:00.441Z,100858.22
2023-03-21T21:25:29.611Z,100858.97
2023-03-21T21:27:56.700Z,100855.38
2023-03-21T21:30:24.399Z,100871.16
2023-03-21T21:32:51.448Z,100866.75
2023-03-21T21:35:20.426Z,100862.38
2023-03-21T21:37:47.870Z,100858.03
2023-03-21T21:40:20.205Z,100856.97
2023-03-21T21:42:47.612Z,100857.84
2023-03-21T21:45:15.786Z,100859.47
2023-03-21T21:47:44.328Z,100850.06
2023-03-21T21:50:12.539Z,100853.47
2023-03-21T21:52:43.411Z,100854.22
2023-03-21T21:55:10.902Z,100855.03
2023-03-21T21:57:39.698Z,100853.34
2023-03-21T22:00:12.872Z,100850.72
2023-03-21T22:02:41.436Z,100852.25
2023-03-21T22:05:10.478Z,100842.81
2023-03-21T22:07:38.071Z,100843.72
2023-03-21T22:10:06.831Z,100840.09
2023-03-21T22:12:34.077Z,100843.78
2023-03-21T22:15:01.347Z,100843.03
2023-03-21T22:17:28.426Z,100844.97
2023-03-21T22:20:05.510Z,100846.06
2023-03-21T22:22:34.602Z,100841.47
2023-03-21T22:25:06.084Z,100832.00
2023-03-21T22:27:33.633Z,100837.22
2023-03-21T22:30:07.458Z,100831.13
2023-03-21T22:32:35.301Z,100840.84
2023-03-21T22:35:02.635Z,100832.97
2023-03-21T22:37:34.414Z,100836.53
2023-03-21T22:40:01.578Z,100847.69
2023-03-21T22:42:28.842Z,100845.78
2023-03-21T22:44:56.701Z,100830.09
2023-03-21T22:47:24.504Z,100845.03
2023-03-21T22:49:51.653Z,100841.59
2023-03-21T22:52:18.798Z,100844.28
2023-03-21T22:54:46.541Z,100840.75
2023-03-21T22:57:13.839Z,100839.00
2023-03-21T22:59:41.156Z,100839.78
2023-03-21T23:02:11.823Z,100842.28
2023-03-21T23:04:39.035Z,100833.72
2023-03-21T23:07:06.508Z,100833.66
2023-03-21T23:09:33.792Z,100823.16
2023-03-21T23:12:01.193Z,100836.13
2023-03-21T23:14:28.420Z,100831.75
2023-03-21T23:17:00.942Z,100833.44
2023-03-21T23:19:31.535Z,100825.66
2023-03-21T23:21:59.770Z,100831.56
2023-03-21T23:24:26.932Z,100826.38
2023-03-21T23:26:54.949Z,100831.31
2023-03-21T23:29:22.100Z,100836.53
2023-03-21T23:31:49.218Z,100833.28
2023-03-21T23:34:16.366Z,100832.34
2023-03-21T23:36:43.519Z,100824.41
2023-03-21T23:39:10.890Z,100819.38
2023-03-21T23:41:38.216Z,100824.31
2023-03-21T23:44:05.535Z,100835.59
2023-03-21T23:46:32.839Z,100819.13
2023-03-21T23:49:01.018Z,100823.47
2023-03-21T23:51:28.180Z,100821.59
2023-03-21T23:53:57.152Z,100825.03
2023-03-21T23:56:26.582Z,100821.81
2023-03-21T23:58:53.858Z,100821.63
